Details From KPWT - Bremerton National
To KAST - Astoria Rgnl
Flight Number -
Tags Decoded
Created
Modified
Stats Distance 103 nm / 191 km
Max Altitude 0 ft / 0 m
Waypoints 5
Social Downloads 2
Likes 0
Share VATSIM

Download

Looking for another format? Having issues loading an existing format? Contact us
Advertisement - Login to hide

Notes

Decoded

Route

KPWT ECEKO YUZPI AST67 KAST

ID Type Via Altitude Latitude Longitude Leg Dist Tot Dist Heading (true) Name
O KPWT APT - 0 ft / 0 m 47.48333˚ -122.77138˚ - 0 nm - -
ECEKO FIX - 0 ft / 0 m 46.88367˚ -122.80439˚ 36 nm 36 nm 182° / 182° -
YUZPI FIX - 0 ft / 0 m 46.14072˚ -123.60850˚ 55 nm 91 nm 217° / 216° -
AST67 FIX - 0 ft / 0 m 46.15115˚ -123.73730˚ 5 nm 97 nm 277° / 277° -
O KAST APT - 0 ft / 0 m 46.16285˚ -123.88346˚ 6 nm 103 nm 277° / 277° Astoria Rgnl

Altitude Profile

Advertisement - Login to hide

KPWT

Details ICAO KPWT (PWT)
Name Bremerton National
Region United States
Timezone America/Los_Angeles (UTC-8.0)
Stats Elevation 444 ft / 135 m (AMSL)
Location 47.490240° -122.764815°
Runways 1
Magnetic Variation 15.777° E

METAR

KPWT 120256Z AUTO 14003KT 10SM CLR M02/M02 A3037 RMK AO2 SLP303 T10171022 50000 FZRANO

Decode

TAF

TAF KPWT 112320Z 1200/1224 VRB03KT P6SM FEW250 FM120400 19003KT P6SM BKN200 FM121200 VRB03KT P6SM OVC080 FM121600 VRB03KT P6SM OVC040

Decode

Departure Runways

ID Width Length Bearing (true) Bearing (mag) Surface Threshold Offset Overrun Length
01 151 ft / 46 m 5,997 ft / 1,828 m 32.69° 16.91° Asphalt 0 ft / 0 m 0 ft / 0 m
19 151 ft / 46 m 5,997 ft / 1,828 m 212.70° 196.92° Asphalt 0 ft / 0 m 1,243 ft / 379 m

KAST

Details ICAO KAST (AST)
Name Astoria Rgnl
Region United States
Timezone America/Los_Angeles (UTC-8.0)
Stats Elevation 15 ft / 5 m (AMSL)
Location 46.157894° -123.878724°
Runways 2
Magnetic Variation 15.637° E

METAR

KAST 120255Z AUTO 00000KT 10SM CLR 05/M01 A3037 RMK AO2 SLP283 T00501011 53016

Decode

TAF

TAF KAST 112320Z 1200/1224 08008KT P6SM SCT250 FM120900 09003KT P6SM BKN100 FM121800 12003KT P6SM OVC050 FM122100 30004KT P6SM BKN040 OVC080

Decode

Destination Runways

ID Width Length Bearing (true) Bearing (mag) Surface Threshold Offset Overrun Length
08 98 ft / 30 m 5,779 ft / 1,762 m 95.49° 79.85° Asphalt 302 ft / 92 m 0 ft / 0 m
13 98 ft / 30 m 4,997 ft / 1,523 m 153.70° 138.06° Asphalt 328 ft / 100 m 0 ft / 0 m
26 98 ft / 30 m 5,779 ft / 1,762 m 275.51° 259.87° Asphalt 705 ft / 215 m 0 ft / 0 m
31 98 ft / 30 m 4,997 ft / 1,523 m 333.70° 318.06° Asphalt 203 ft / 62 m 0 ft / 0 m

Approach Navaids

Runway Type Ident Frequency Range Bearing (true) Bearing (mag) Slope Elevation
26 Localiser IAST 109.50 MHz 18 nm / 33 km 275.50° 259.86° - 15 ft / 5 m (AMSL)
26 Glidescope IAST 109.50 MHz 10 nm / 19 km 275.50° 259.86° 3.00° 15 ft / 5 m (AMSL)